createdAt,value
2022-08-22T00:01:52.567Z,3.00
2022-08-22T00:07:41.164Z,3.30
2022-08-22T00:13:07.581Z,1.00
2022-08-22T00:18:29.553Z,0.80
2022-08-22T00:23:41.374Z,2.30
2022-08-22T00:29:05.154Z,2.40
2022-08-22T00:34:22.769Z,1.50
2022-08-22T00:39:45.201Z,1.10
2022-08-22T00:45:11.600Z,1.60
2022-08-22T00:50:54.954Z,1.10
2022-08-22T00:56:32.126Z,2.80
2022-08-22T01:01:41.556Z,4.10
2022-08-22T01:07:22.210Z,2.20
2022-08-22T01:13:02.768Z,3.70
2022-08-22T01:19:06.263Z,1.60
2022-08-22T01:25:17.830Z,3.40
2022-08-22T01:31:24.075Z,1.80
2022-08-22T01:37:01.793Z,4.00
2022-08-22T01:43:09.664Z,1.30
2022-08-22T01:48:22.579Z,2.30
2022-08-22T01:53:44.519Z,2.20
2022-08-22T01:59:10.930Z,2.30
2022-08-22T02:04:34.004Z,2.60
2022-08-22T02:10:14.218Z,5.40
2022-08-22T02:15:38.504Z,2.10
2022-08-22T02:21:10.408Z,1.80
2022-08-22T02:27:07.124Z,1.80
2022-08-22T02:32:35.612Z,1.60
2022-08-22T02:38:13.480Z,3.00
2022-08-22T02:43:27.965Z,2.10
2022-08-22T02:48:50.631Z,2.30
2022-08-22T02:54:10.837Z,1.60
2022-08-22T02:59:32.559Z,3.90
2022-08-22T03:04:41.236Z,2.10
2022-08-22T03:10:26.208Z,3.20
2022-08-22T03:16:00.633Z,3.50
2022-08-22T03:21:35.454Z,2.90
2022-08-22T03:26:52.141Z,3.40
2022-08-22T03:32:22.792Z,3.80
2022-08-22T03:37:37.887Z,3.50
2022-08-22T03:43:17.754Z,1.90
2022-08-22T03:48:35.686Z,3.40
2022-08-22T03:53:46.546Z,3.90
2022-08-22T03:59:42.524Z,4.90
2022-08-22T04:04:51.877Z,4.00
2022-08-22T04:10:52.494Z,4.10
2022-08-22T04:16:04.088Z,4.50
2022-08-22T04:21:52.928Z,6.70
2022-08-22T04:27:07.643Z,4.40
2022-08-22T04:32:34.450Z,5.10
2022-08-22T04:37:53.661Z,4.90
2022-08-22T04:43:08.639Z,5.00
2022-08-22T04:48:34.958Z,4.90
2022-08-22T04:54:09.072Z,4.50
2022-08-22T04:59:17.333Z,5.00
2022-08-22T05:04:34.882Z,3.70
2022-08-22T05:09:45.673Z,4.90
2022-08-22T05:14:59.316Z,4.60
2022-08-22T05:20:15.038Z,3.40
2022-08-22T05:25:25.733Z,2.60
2022-08-22T05:30:31.890Z,2.30
2022-08-22T05:35:50.136Z,3.70
2022-08-22T05:41:05.916Z,3.50
2022-08-22T05:46:41.854Z,4.30
2022-08-22T05:52:00.193Z,3.60
2022-08-22T05:57:32.078Z,3.70
2022-08-22T06:03:06.182Z,2.00
2022-08-22T06:08:26.846Z,3.90
2022-08-22T06:13:37.285Z,4.50
2022-08-22T06:18:46.126Z,5.50
2022-08-22T06:24:02.978Z,2.10
2022-08-22T06:29:09.583Z,3.90
2022-08-22T06:34:29.660Z,3.50
2022-08-22T06:39:45.394Z,3.40
2022-08-22T06:45:29.511Z,4.60
2022-08-22T06:50:40.665Z,4.80
2022-08-22T06:55:53.240Z,2.30
2022-08-22T07:01:11.944Z,2.70
2022-08-22T07:06:31.862Z,6.10
2022-08-22T07:11:39.982Z,4.50
2022-08-22T07:16:55.222Z,3.00
2022-08-22T07:22:10.309Z,4.40
2022-08-22T07:27:19.948Z,3.90
2022-08-22T07:33:24.912Z,2.40
2022-08-22T07:38:43.959Z,3.60
2022-08-22T07:43:54.410Z,1.80
2022-08-22T07:49:31.889Z,2.50
2022-08-22T07:54:47.316Z,2.50
2022-08-22T07:59:57.407Z,2.00
2022-08-22T08:05:01.154Z,3.10
2022-08-22T08:10:16.394Z,4.90
2022-08-22T08:15:24.458Z,1.70
2022-08-22T08:20:30.318Z,3.80
2022-08-22T08:26:02.539Z,3.00
2022-08-22T08:31:18.220Z,2.90
2022-08-22T08:36:59.912Z,4.10
2022-08-22T08:42:11.468Z,1.80
2022-08-22T08:47:35.406Z,3.00
2022-08-22T08:53:32.750Z,2.60
2022-08-22T08:59:24.076Z,1.90
2022-08-22T09:05:12.832Z,1.90
2022-08-22T09:11:00.439Z,2.10
2022-08-22T09:17:00.685Z,1.50
2022-08-22T09:22:50.306Z,1.20
2022-08-22T09:28:48.982Z,1.50
2022-08-22T09:34:28.874Z,1.90
2022-08-22T09:40:01.594Z,1.60
2022-08-22T09:45:07.282Z,2.30
2022-08-22T09:50:20.123Z,1.30
2022-08-22T09:55:45.325Z,2.00
2022-08-22T10:01:19.172Z,1.90
2022-08-22T10:06:31.154Z,3.40
2022-08-22T10:11:55.323Z,2.10
2022-08-22T10:17:24.137Z,2.80
2022-08-22T10:22:49.491Z,2.40
2022-08-22T10:28:02.534Z,2.20
2022-08-22T10:33:57.766Z,2.00
2022-08-22T10:39:10.893Z,1.90
2022-08-22T10:44:36.323Z,1.90
2022-08-22T10:50:10.767Z,2.40
2022-08-22T10:55:24.595Z,1.40
2022-08-22T11:00:50.528Z,1.80
2022-08-22T11:06:03.714Z,2.90
2022-08-22T11:11:24.659Z,2.00
2022-08-22T11:17:27.536Z,1.70
2022-08-22T11:22:34.598Z,1.30
2022-08-22T11:28:12.950Z,1.20
2022-08-22T11:33:53.220Z,1.60
2022-08-22T11:39:30.133Z,1.30
2022-08-22T11:44:50.073Z,1.80
2022-08-22T11:50:18.529Z,1.30
2022-08-22T11:55:37.422Z,1.70
2022-08-22T12:01:17.150Z,1.80
2022-08-22T12:07:03.160Z,1.40
2022-08-22T12:12:09.108Z,1.40
2022-08-22T12:17:55.485Z,1.60
2022-08-22T12:23:40.783Z,1.40
2022-08-22T12:29:19.152Z,1.10
2022-08-22T12:34:47.452Z,1.50
2022-08-22T12:40:20.184Z,1.00
2022-08-22T12:46:13.197Z,1.20
2022-08-22T12:51:50.602Z,1.40
2022-08-22T12:57:24.475Z,1.00
2022-08-22T13:02:33.997Z,1.00
2022-08-22T13:07:41.494Z,1.40
2022-08-22T13:12:56.020Z,1.00
2022-08-22T13:18:28.388Z,1.30
2022-08-22T13:23:43.776Z,1.80
2022-08-22T13:29:24.493Z,1.60
2022-08-22T13:34:43.621Z,1.30
2022-08-22T13:39:51.102Z,1.10
2022-08-22T13:44:59.911Z,1.30
2022-08-22T13:50:22.311Z,1.40
2022-08-22T13:55:48.959Z,1.60
2022-08-22T14:01:25.513Z,1.80
2022-08-22T14:06:46.686Z,1.60
2022-08-22T14:11:59.282Z,1.60
2022-08-22T14:17:03.405Z,1.40
2022-08-22T14:22:17.220Z,1.40
2022-08-22T14:27:50.069Z,2.10
2022-08-22T14:33:16.976Z,1.80
2022-08-22T14:38:37.876Z,1.90
2022-08-22T14:44:07.471Z,1.80
2022-08-22T14:49:19.403Z,1.90
2022-08-22T14:54:28.926Z,1.70
2022-08-22T14:59:47.059Z,1.30
2022-08-22T15:04:56.259Z,1.90
2022-08-22T15:10:21.582Z,1.40
2022-08-22T15:15:41.113Z,1.60
2022-08-22T15:21:24.125Z,1.50
2022-08-22T15:26:41.110Z,1.30
2022-08-22T15:31:46.774Z,1.20
2022-08-22T15:37:11.968Z,1.30
2022-08-22T15:42:27.019Z,1.00
2022-08-22T15:47:41.667Z,1.50
2022-08-22T15:53:24.093Z,1.30
2022-08-22T15:58:27.564Z,1.00
2022-08-22T16:03:36.502Z,1.10
2022-08-22T16:08:52.074Z,1.20
2022-08-22T16:14:43.265Z,1.00
2022-08-22T16:19:46.255Z,1.20
2022-08-22T16:25:00.162Z,1.20
2022-08-22T16:30:12.170Z,1.20
2022-08-22T16:36:32.453Z,1.40
2022-08-22T16:41:42.305Z,1.30
2022-08-22T16:46:48.646Z,1.00
2022-08-22T16:52:25.631Z,1.40
2022-08-22T16:58:10.081Z,1.80
2022-08-22T17:03:37.836Z,1.30
2022-08-22T17:08:46.632Z,1.90
2022-08-22T17:14:52.202Z,1.20
2022-08-22T17:20:26.279Z,2.00
2022-08-22T17:25:48.171Z,1.90
2022-08-22T17:31:20.489Z,1.40
2022-08-22T17:36:50.915Z,1.50
2022-08-22T17:42:56.596Z,1.10
2022-08-22T17:48:25.011Z,1.20
2022-08-22T17:53:46.747Z,1.60
2022-08-22T17:59:10.911Z,1.50
2022-08-22T18:04:29.548Z,1.40
2022-08-22T18:09:54.198Z,1.30
2022-08-22T18:15:08.887Z,1.20
2022-08-22T18:20:52.560Z,1.20
2022-08-22T18:26:27.077Z,1.30
2022-08-22T18:31:54.315Z,1.90
2022-08-22T18:37:18.062Z,1.50
2022-08-22T18:42:28.581Z,1.40
2022-08-22T18:47:35.044Z,1.90
2022-08-22T18:52:39.660Z,1.80
2022-08-22T18:58:12.994Z,1.70
2022-08-22T19:03:28.271Z,1.60
2022-08-22T19:09:08.685Z,2.00
2022-08-22T19:14:40.968Z,1.70
2022-08-22T19:20:14.682Z,1.40
2022-08-22T19:25:27.333Z,1.90
2022-08-22T19:31:14.945Z,1.60
2022-08-22T19:36:33.122Z,2.00
2022-08-22T19:41:58.153Z,2.10
2022-08-22T19:47:19.023Z,1.90
2022-08-22T19:52:58.583Z,2.00
2022-08-22T19:58:50.626Z,4.80
2022-08-22T20:04:05.499Z,2.20
2022-08-22T20:09:31.853Z,2.20
2022-08-22T20:14:40.151Z,2.20
2022-08-22T20:25:42.611Z,2.30
2022-08-22T20:30:47.952Z,2.20
2022-08-22T20:35:59.622Z,2.50
2022-08-22T20:41:22.956Z,2.50
2022-08-22T20:46:46.345Z,2.40
2022-08-22T20:52:05.724Z,1.90
2022-08-22T20:57:17.801Z,2.00
2022-08-22T21:02:45.105Z,2.20
2022-08-22T21:08:10.461Z,2.40
2022-08-22T21:13:21.324Z,2.50
2022-08-22T21:18:52.960Z,2.30
2022-08-22T21:24:07.825Z,2.30
2022-08-22T21:29:10.662Z,2.60
2022-08-22T21:34:30.308Z,2.40
2022-08-22T21:39:44.019Z,2.30
2022-08-22T21:45:00.879Z,2.00
2022-08-22T21:50:20.909Z,2.60
2022-08-22T21:55:28.053Z,2.50
2022-08-22T22:00:40.159Z,2.00
2022-08-22T22:05:59.366Z,2.80
2022-08-22T22:11:08.545Z,3.70
2022-08-22T22:16:12.856Z,3.00
2022-08-22T22:21:16.995Z,2.40
2022-08-22T22:26:21.464Z,2.20
2022-08-22T22:31:24.469Z,2.50
2022-08-22T22:36:27.938Z,2.80
2022-08-22T22:41:30.915Z,2.60
2022-08-22T22:46:33.951Z,2.70
2022-08-22T22:51:36.981Z,2.60
2022-08-22T22:56:39.983Z,2.50
2022-08-22T23:02:14.353Z,2.40
2022-08-22T23:07:18.564Z,2.30
2022-08-22T23:12:24.323Z,2.80
2022-08-22T23:17:28.552Z,3.00
2022-08-22T23:22:31.960Z,2.10
2022-08-22T23:27:35.621Z,2.50
2022-08-22T23:32:39.316Z,2.50
2022-08-22T23:37:42.403Z,3.20
2022-08-22T23:42:45.374Z,3.40
2022-08-22T23:47:49.188Z,3.60
2022-08-22T23:52:52.273Z,3.50
2022-08-22T23:57:55.380Z,3.90
